LAN021 SCEL-SCQP
Flight info
| Callsign | LAN021 |
|---|---|
| Flight time | 0h 57m |
| Altitude | 33000 |
| Route | ANGOD6C ANGOD UQ803 SUMKO SUMKO4G |
| Aircraft | A321/M-SDE3FGHIRWY/LB1 |
Departure
| Time | 2026-05-06 11:56 |
|---|---|
| Airport | Comodoro Arturo Merino Benítez International Airport (SCEL) |
Arrival
| Time | 2026-05-06 12:53 |
|---|---|
| Airport | La Araucanía International Airport (SCQP) |
| Time | Latitude | Longitude | Altitude | Speed | Heading |
|---|---|---|---|---|---|
| 2026-05-06 11:19 | -33.39711 | -70.78953 | 1564 ft | 0 kts | 356° |
| 2026-05-06 11:37 | -33.39732 | -70.78952 | 1564 ft | 4 kts | 358° |
| 2026-05-06 11:38 | -33.39759 | -70.78952 | 1564 ft | 4 kts | 7° |
| 2026-05-06 11:38 | -33.39784 | -70.78960 | 1564 ft | 4 kts | 39° |
| 2026-05-06 11:38 | -33.39793 | -70.78980 | 1564 ft | 4 kts | 88° |
| 2026-05-06 11:38 | -33.39794 | -70.79002 | 1564 ft | 0 kts | 88° |
| 2026-05-06 11:42 | -33.39794 | -70.78995 | 1564 ft | 1 kts | 88° |
| 2026-05-06 11:42 | -33.39793 | -70.78975 | 1564 ft | 4 kts | 88° |
| 2026-05-06 11:42 | -33.39791 | -70.78923 | 1564 ft | 8 kts | 87° |
| 2026-05-06 11:42 | -33.39771 | -70.78878 | 1564 ft | 1 kts | 6° |
| 2026-05-06 11:43 | -33.39743 | -70.78880 | 1564 ft | 7 kts | 357° |
| 2026-05-06 11:43 | -33.39673 | -70.78883 | 1564 ft | 13 kts | 358° |
| 2026-05-06 11:43 | -33.39581 | -70.78887 | 1564 ft | 12 kts | 358° |
| 2026-05-06 11:44 | -33.39456 | -70.78897 | 1564 ft | 8 kts | 355° |
| 2026-05-06 11:44 | -33.39396 | -70.78898 | 1564 ft | 9 kts | 359° |
| 2026-05-06 11:44 | -33.39332 | -70.78901 | 1564 ft | 10 kts | 356° |
| 2026-05-06 11:44 | -33.39308 | -70.78951 | 1564 ft | 8 kts | 272° |
| 2026-05-06 11:45 | -33.39310 | -70.79017 | 1564 ft | 8 kts | 268° |
| 2026-05-06 11:45 | -33.39312 | -70.79086 | 1564 ft | 9 kts | 267° |
| 2026-05-06 11:45 | -33.39315 | -70.79160 | 1564 ft | 9 kts | 268° |
| 2026-05-06 11:45 | -33.39317 | -70.79239 | 1564 ft | 10 kts | 269° |
| 2026-05-06 11:46 | -33.39320 | -70.79321 | 1564 ft | 10 kts | 267° |
| 2026-05-06 11:46 | -33.39324 | -70.79410 | 1564 ft | 11 kts | 267° |
| 2026-05-06 11:46 | -33.39324 | -70.79425 | 1564 ft | 11 kts | 268° |
| 2026-05-06 11:47 | -33.39325 | -70.79439 | 1564 ft | 11 kts | 268° |
| 2026-05-06 11:47 | -33.39329 | -70.79534 | 1564 ft | 11 kts | 267° |
| 2026-05-06 11:47 | -33.39333 | -70.79632 | 1564 ft | 12 kts | 268° |
| 2026-05-06 11:47 | -33.39337 | -70.79731 | 1564 ft | 12 kts | 267° |
| 2026-05-06 11:48 | -33.39341 | -70.79835 | 1565 ft | 13 kts | 268° |
| 2026-05-06 11:48 | -33.39344 | -70.79922 | 1565 ft | 6 kts | 268° |
| 2026-05-06 11:48 | -33.39307 | -70.79952 | 1565 ft | 10 kts | 352° |
| 2026-05-06 11:48 | -33.39226 | -70.79956 | 1565 ft | 15 kts | 359° |
| 2026-05-06 11:49 | -33.39108 | -70.79963 | 1565 ft | 18 kts | 357° |
| 2026-05-06 11:49 | -33.38981 | -70.79971 | 1565 ft | 17 kts | 357° |
| 2026-05-06 11:49 | -33.38875 | -70.79976 | 1565 ft | 13 kts | 357° |
| 2026-05-06 11:49 | -33.38799 | -70.79980 | 1565 ft | 10 kts | 358° |
| 2026-05-06 11:50 | -33.38722 | -70.79983 | 1565 ft | 12 kts | 358° |
| 2026-05-06 11:50 | -33.38637 | -70.79988 | 1565 ft | 13 kts | 357° |
| 2026-05-06 11:50 | -33.38543 | -70.79993 | 1565 ft | 14 kts | 357° |
| 2026-05-06 11:50 | -33.38442 | -70.80001 | 1565 ft | 10 kts | 356° |
| 2026-05-06 11:51 | -33.38396 | -70.80040 | 1565 ft | 8 kts | 265° |
| 2026-05-06 11:51 | -33.38376 | -70.80104 | 1566 ft | 10 kts | 341° |
| 2026-05-06 11:51 | -33.38270 | -70.80113 | 1566 ft | 21 kts | 357° |
| 2026-05-06 11:51 | -33.38120 | -70.80119 | 1566 ft | 21 kts | 358° |
| 2026-05-06 11:52 | -33.37978 | -70.80127 | 1566 ft | 20 kts | 357° |
| 2026-05-06 11:52 | -33.37845 | -70.80134 | 1566 ft | 18 kts | 358° |
| 2026-05-06 11:52 | -33.37728 | -70.80141 | 1566 ft | 17 kts | 357° |
| 2026-05-06 11:52 | -33.37613 | -70.80148 | 1566 ft | 15 kts | 358° |
| 2026-05-06 11:53 | -33.37509 | -70.80152 | 1566 ft | 17 kts | 358° |
| 2026-05-06 11:53 | -33.37357 | -70.80160 | 1567 ft | 27 kts | 357° |
| 2026-05-06 11:53 | -33.37205 | -70.80169 | 1567 ft | 17 kts | 358° |
| 2026-05-06 11:53 | -33.37123 | -70.80203 | 1567 ft | 11 kts | 313° |
| 2026-05-06 11:54 | -33.37105 | -70.80273 | 1571 ft | 6 kts | 269° |
| 2026-05-06 11:54 | -33.37117 | -70.80325 | 1574 ft | 8 kts | 246° |
| 2026-05-06 11:54 | -33.37170 | -70.80372 | 1574 ft | 11 kts | 198° |
| 2026-05-06 11:54 | -33.37204 | -70.80373 | 1573 ft | 0 kts | 178° |
| 2026-05-06 11:55 | -33.37267 | -70.80370 | 1573 ft | 37 kts | 178° |
| 2026-05-06 11:55 | -33.37766 | -70.80343 | 1572 ft | 103 kts | 177° |
| 2026-05-06 11:55 | -33.38666 | -70.80294 | 1575 ft | 153 kts | 178° |
| 2026-05-06 11:55 | -33.39852 | -70.80235 | 1696 ft | 180 kts | 178° |
| 2026-05-06 11:56 | -33.41092 | -70.80177 | 2330 ft | 178 kts | 178° |
| 2026-05-06 11:56 | -33.42338 | -70.80117 | 2831 ft | 184 kts | 178° |
| 2026-05-06 11:56 | -33.43694 | -70.80038 | 2949 ft | 204 kts | 177° |
| 2026-05-06 11:56 | -33.45178 | -70.79953 | 3093 ft | 224 kts | 177° |
| 2026-05-06 11:57 | -33.46815 | -70.79863 | 3208 ft | 248 kts | 179° |
| 2026-05-06 11:57 | -33.48619 | -70.79762 | 3482 ft | 270 kts | 178° |
| 2026-05-06 11:57 | -33.50528 | -70.79654 | 4085 ft | 278 kts | 178° |
| 2026-05-06 11:57 | -33.52470 | -70.79551 | 4820 ft | 281 kts | 178° |
| 2026-05-06 11:58 | -33.54433 | -70.79447 | 5536 ft | 284 kts | 179° |
| 2026-05-06 11:58 | -33.56413 | -70.79340 | 6252 ft | 286 kts | 179° |
| 2026-05-06 11:58 | -33.58416 | -70.79261 | 6944 ft | 289 kts | 184° |
| 2026-05-06 11:58 | -33.60400 | -70.79625 | 7609 ft | 289 kts | 197° |
| 2026-05-06 11:59 | -33.62358 | -70.80242 | 8284 ft | 293 kts | 197° |
| 2026-05-06 11:59 | -33.64313 | -70.80856 | 8926 ft | 296 kts | 197° |
| 2026-05-06 11:59 | -33.66313 | -70.81481 | 9579 ft | 299 kts | 197° |
| 2026-05-06 11:59 | -33.68337 | -70.82111 | 10208 ft | 303 kts | 197° |
| 2026-05-06 12:00 | -33.70449 | -70.82770 | 10386 ft | 324 kts | 197° |
| 2026-05-06 12:00 | -33.72706 | -70.83476 | 10515 ft | 344 kts | 197° |
| 2026-05-06 12:00 | -33.75074 | -70.84220 | 10771 ft | 358 kts | 197° |
| 2026-05-06 12:00 | -33.77504 | -70.84977 | 11307 ft | 363 kts | 197° |
| 2026-05-06 12:01 | -33.79970 | -70.85740 | 11873 ft | 368 kts | 197° |
| 2026-05-06 12:01 | -33.82462 | -70.86512 | 12443 ft | 372 kts | 198° |
| 2026-05-06 12:01 | -33.84979 | -70.87297 | 12974 ft | 376 kts | 199° |
| 2026-05-06 12:01 | -33.87524 | -70.88094 | 13502 ft | 380 kts | 198° |
| 2026-05-06 12:02 | -33.90093 | -70.88900 | 14053 ft | 383 kts | 199° |
| 2026-05-06 12:02 | -33.92686 | -70.89712 | 14596 ft | 387 kts | 199° |
| 2026-05-06 12:02 | -33.95307 | -70.90530 | 15129 ft | 391 kts | 200° |
| 2026-05-06 12:02 | -33.97953 | -70.91358 | 15548 ft | 394 kts | 200° |
| 2026-05-06 12:03 | -34.00620 | -70.92193 | 16084 ft | 397 kts | 201° |
| 2026-05-06 12:03 | -34.03313 | -70.93022 | 16518 ft | 402 kts | 200° |
| 2026-05-06 12:03 | -34.06051 | -70.93796 | 16960 ft | 407 kts | 199° |
| 2026-05-06 12:03 | -34.08827 | -70.94534 | 17492 ft | 410 kts | 199° |
| 2026-05-06 12:04 | -34.11631 | -70.95261 | 17986 ft | 414 kts | 199° |
| 2026-05-06 12:04 | -34.14451 | -70.95992 | 18493 ft | 416 kts | 199° |
| 2026-05-06 12:04 | -34.17291 | -70.96741 | 18949 ft | 419 kts | 200° |
| 2026-05-06 12:04 | -34.20146 | -70.97509 | 19411 ft | 421 kts | 200° |
| 2026-05-06 12:05 | -34.23011 | -70.98294 | 19857 ft | 424 kts | 201° |
| 2026-05-06 12:05 | -34.25864 | -70.99080 | 20271 ft | 426 kts | 201° |
| 2026-05-06 12:05 | -34.28764 | -70.99873 | 20691 ft | 428 kts | 201° |
| 2026-05-06 12:05 | -34.31674 | -71.00672 | 21119 ft | 430 kts | 201° |
| 2026-05-06 12:06 | -34.34560 | -71.01465 | 21532 ft | 432 kts | 202° |
| 2026-05-06 12:06 | -34.37502 | -71.02272 | 21937 ft | 434 kts | 201° |
| 2026-05-06 12:06 | -34.40454 | -71.03080 | 22328 ft | 437 kts | 202° |
| 2026-05-06 12:06 | -34.43424 | -71.03897 | 22684 ft | 439 kts | 202° |
| 2026-05-06 12:07 | -34.46409 | -71.04718 | 23037 ft | 441 kts | 202° |
| 2026-05-06 12:07 | -34.49412 | -71.05543 | 23406 ft | 444 kts | 202° |
| 2026-05-06 12:07 | -34.52427 | -71.06374 | 23730 ft | 446 kts | 202° |
| 2026-05-06 12:07 | -34.55448 | -71.07204 | 24106 ft | 447 kts | 202° |
| 2026-05-06 12:08 | -34.58498 | -71.08041 | 24431 ft | 449 kts | 202° |
| 2026-05-06 12:08 | -34.61549 | -71.08876 | 24752 ft | 451 kts | 202° |
| 2026-05-06 12:08 | -34.64623 | -71.09719 | 25062 ft | 454 kts | 203° |
| 2026-05-06 12:08 | -34.67711 | -71.10568 | 25369 ft | 456 kts | 203° |
| 2026-05-06 12:09 | -34.70813 | -71.11422 | 25677 ft | 458 kts | 203° |
| 2026-05-06 12:09 | -34.72874 | -71.11990 | 25879 ft | 460 kts | 204° |
| 2026-05-06 12:09 | -34.76015 | -71.12820 | 26161 ft | 463 kts | 202° |
| 2026-05-06 12:09 | -34.79183 | -71.13603 | 26457 ft | 466 kts | 202° |
| 2026-05-06 12:10 | -34.82374 | -71.14359 | 26730 ft | 469 kts | 202° |
| 2026-05-06 12:10 | -34.85589 | -71.15109 | 27016 ft | 471 kts | 202° |
| 2026-05-06 12:10 | -34.88815 | -71.15865 | 27297 ft | 473 kts | 202° |
| 2026-05-06 12:10 | -34.92049 | -71.16636 | 27568 ft | 475 kts | 202° |
| 2026-05-06 12:11 | -34.95296 | -71.17422 | 27837 ft | 477 kts | 202° |
| 2026-05-06 12:11 | -34.98556 | -71.18220 | 28095 ft | 479 kts | 203° |
| 2026-05-06 12:11 | -35.01825 | -71.19022 | 28346 ft | 480 kts | 203° |
| 2026-05-06 12:11 | -35.05107 | -71.19825 | 28589 ft | 482 kts | 203° |
| 2026-05-06 12:12 | -35.08400 | -71.20632 | 28836 ft | 484 kts | 202° |
| 2026-05-06 12:12 | -35.11710 | -71.21442 | 29082 ft | 486 kts | 203° |
| 2026-05-06 12:12 | -35.15030 | -71.22255 | 29338 ft | 488 kts | 203° |
| 2026-05-06 12:12 | -35.18367 | -71.23071 | 29563 ft | 489 kts | 203° |
| 2026-05-06 12:13 | -35.21706 | -71.23887 | 29799 ft | 490 kts | 203° |
| 2026-05-06 12:13 | -35.25056 | -71.24707 | 30037 ft | 492 kts | 204° |
| 2026-05-06 12:13 | -35.28384 | -71.25526 | 30335 ft | 490 kts | 204° |
| 2026-05-06 12:13 | -35.31725 | -71.26347 | 30617 ft | 490 kts | 204° |
| 2026-05-06 12:14 | -35.35071 | -71.27170 | 30918 ft | 490 kts | 204° |
| 2026-05-06 12:14 | -35.38408 | -71.27988 | 31255 ft | 488 kts | 204° |
| 2026-05-06 12:14 | -35.41734 | -71.28803 | 31551 ft | 488 kts | 204° |
| 2026-05-06 12:14 | -35.45064 | -71.29622 | 31828 ft | 488 kts | 204° |
| 2026-05-06 12:15 | -35.48396 | -71.30441 | 32124 ft | 488 kts | 204° |
| 2026-05-06 12:15 | -35.51712 | -71.31258 | 32425 ft | 486 kts | 204° |
| 2026-05-06 12:15 | -35.55025 | -71.32077 | 32720 ft | 485 kts | 204° |
| 2026-05-06 12:15 | -35.58333 | -71.32899 | 33015 ft | 484 kts | 204° |
| 2026-05-06 12:16 | -35.61630 | -71.33720 | 33303 ft | 484 kts | 204° |
| 2026-05-06 12:16 | -35.64931 | -71.34542 | 33567 ft | 483 kts | 204° |
| 2026-05-06 12:16 | -35.68224 | -71.35361 | 33825 ft | 483 kts | 204° |
| 2026-05-06 12:16 | -35.71478 | -71.36169 | 34038 ft | 484 kts | 204° |
| 2026-05-06 12:17 | -35.74778 | -71.36990 | 34266 ft | 483 kts | 204° |
| 2026-05-06 12:17 | -35.78071 | -71.37810 | 34482 ft | 483 kts | 204° |
| 2026-05-06 12:17 | -35.81348 | -71.38627 | 34737 ft | 482 kts | 204° |
| 2026-05-06 12:17 | -35.84634 | -71.39450 | 34924 ft | 482 kts | 204° |
| 2026-05-06 12:18 | -35.91185 | -71.41088 | 34968 ft | 479 kts | 204° |
| 2026-05-06 12:18 | -35.97714 | -71.42712 | 34971 ft | 478 kts | 204° |
| 2026-05-06 12:19 | -36.04228 | -71.44350 | 34969 ft | 478 kts | 203° |
| 2026-05-06 12:19 | -36.10747 | -71.45995 | 34959 ft | 478 kts | 203° |
| 2026-05-06 12:20 | -36.17263 | -71.47634 | 34961 ft | 478 kts | 203° |
| 2026-05-06 12:20 | -36.23782 | -71.49279 | 34962 ft | 478 kts | 203° |
| 2026-05-06 12:21 | -36.30300 | -71.50920 | 34959 ft | 478 kts | 203° |
| 2026-05-06 12:21 | -36.36804 | -71.52565 | 34957 ft | 477 kts | 203° |
| 2026-05-06 12:22 | -36.43315 | -71.54213 | 34956 ft | 478 kts | 203° |
| 2026-05-06 12:22 | -36.49784 | -71.55850 | 34956 ft | 477 kts | 202° |
| 2026-05-06 12:23 | -36.56275 | -71.57497 | 34953 ft | 477 kts | 202° |
| 2026-05-06 12:23 | -36.62778 | -71.59154 | 34952 ft | 477 kts | 202° |
| 2026-05-06 12:24 | -36.69289 | -71.60813 | 34951 ft | 478 kts | 202° |
| 2026-05-06 12:24 | -36.75795 | -71.62469 | 34955 ft | 478 kts | 202° |
| 2026-05-06 12:25 | -36.82307 | -71.64139 | 34959 ft | 478 kts | 202° |
| 2026-05-06 12:25 | -36.88819 | -71.65818 | 34962 ft | 478 kts | 201° |
| 2026-05-06 12:26 | -36.95327 | -71.67490 | 34963 ft | 478 kts | 200° |
| 2026-05-06 12:26 | -37.01840 | -71.69159 | 34965 ft | 477 kts | 199° |
| 2026-05-06 12:27 | -37.08344 | -71.70826 | 34968 ft | 476 kts | 199° |
| 2026-05-06 12:27 | -37.14823 | -71.72507 | 34975 ft | 475 kts | 199° |
| 2026-05-06 12:28 | -37.21279 | -71.74186 | 34975 ft | 475 kts | 198° |
| 2026-05-06 12:28 | -37.27746 | -71.75862 | 34975 ft | 474 kts | 198° |
| 2026-05-06 12:29 | -37.34214 | -71.77528 | 34770 ft | 474 kts | 198° |
| 2026-05-06 12:29 | -37.37441 | -71.78360 | 34520 ft | 474 kts | 198° |
| 2026-05-06 12:29 | -37.40622 | -71.79186 | 34275 ft | 473 kts | 198° |
| 2026-05-06 12:30 | -37.43893 | -71.80040 | 34012 ft | 473 kts | 198° |
| 2026-05-06 12:30 | -37.47119 | -71.80887 | 33762 ft | 474 kts | 198° |
| 2026-05-06 12:30 | -37.50346 | -71.81733 | 33533 ft | 474 kts | 197° |
| 2026-05-06 12:30 | -37.53576 | -71.82577 | 33280 ft | 473 kts | 197° |
| 2026-05-06 12:31 | -37.56791 | -71.83415 | 33023 ft | 471 kts | 197° |
| 2026-05-06 12:31 | -37.59947 | -71.84235 | 32777 ft | 469 kts | 197° |
| 2026-05-06 12:31 | -37.63141 | -71.85069 | 32527 ft | 468 kts | 197° |
| 2026-05-06 12:31 | -37.66324 | -71.85903 | 32276 ft | 466 kts | 197° |
| 2026-05-06 12:32 | -37.69497 | -71.86733 | 32025 ft | 464 kts | 197° |
| 2026-05-06 12:32 | -37.72588 | -71.87752 | 31593 ft | 455 kts | 205° |
| 2026-05-06 12:32 | -37.75521 | -71.89196 | 31063 ft | 451 kts | 207° |
| 2026-05-06 12:32 | -37.78414 | -71.90661 | 30538 ft | 448 kts | 207° |
| 2026-05-06 12:33 | -37.81302 | -71.92130 | 30010 ft | 444 kts | 207° |
| 2026-05-06 12:33 | -37.84159 | -71.93583 | 29500 ft | 442 kts | 206° |
| 2026-05-06 12:33 | -37.87004 | -71.95024 | 28991 ft | 438 kts | 206° |
| 2026-05-06 12:33 | -37.89829 | -71.96441 | 28485 ft | 436 kts | 206° |
| 2026-05-06 12:34 | -37.92648 | -71.97855 | 27985 ft | 434 kts | 206° |
| 2026-05-06 12:34 | -37.95441 | -71.99259 | 27499 ft | 431 kts | 206° |
| 2026-05-06 12:34 | -37.98224 | -72.00662 | 26998 ft | 429 kts | 206° |
| 2026-05-06 12:34 | -38.00982 | -72.02056 | 26541 ft | 425 kts | 206° |
| 2026-05-06 12:35 | -38.03725 | -72.03449 | 26058 ft | 423 kts | 206° |
| 2026-05-06 12:35 | -38.06443 | -72.04829 | 25607 ft | 420 kts | 206° |
| 2026-05-06 12:35 | -38.09150 | -72.06200 | 25156 ft | 417 kts | 206° |
| 2026-05-06 12:35 | -38.11831 | -72.07559 | 24711 ft | 414 kts | 206° |
| 2026-05-06 12:36 | -38.14491 | -72.08912 | 24267 ft | 410 kts | 207° |
| 2026-05-06 12:36 | -38.17128 | -72.10255 | 23832 ft | 407 kts | 207° |
| 2026-05-06 12:36 | -38.19747 | -72.11588 | 23393 ft | 404 kts | 207° |
| 2026-05-06 12:36 | -38.22349 | -72.12914 | 22952 ft | 401 kts | 207° |
| 2026-05-06 12:37 | -38.24933 | -72.14231 | 22508 ft | 398 kts | 207° |
| 2026-05-06 12:37 | -38.27491 | -72.15537 | 22071 ft | 396 kts | 207° |
| 2026-05-06 12:37 | -38.30014 | -72.16828 | 21619 ft | 394 kts | 207° |
| 2026-05-06 12:37 | -38.32550 | -72.18126 | 21172 ft | 391 kts | 207° |
| 2026-05-06 12:38 | -38.35072 | -72.19417 | 20716 ft | 390 kts | 207° |
| 2026-05-06 12:38 | -38.37578 | -72.20703 | 20268 ft | 387 kts | 207° |
| 2026-05-06 12:38 | -38.40071 | -72.21983 | 19812 ft | 385 kts | 207° |
| 2026-05-06 12:38 | -38.42548 | -72.23252 | 19365 ft | 383 kts | 207° |
| 2026-05-06 12:39 | -38.45009 | -72.24515 | 18913 ft | 380 kts | 207° |
| 2026-05-06 12:39 | -38.47456 | -72.25768 | 18480 ft | 378 kts | 207° |
| 2026-05-06 12:39 | -38.49869 | -72.27002 | 18036 ft | 376 kts | 207° |
| 2026-05-06 12:39 | -38.52229 | -72.28211 | 17615 ft | 373 kts | 207° |
| 2026-05-06 12:40 | -38.54629 | -72.29448 | 17182 ft | 371 kts | 207° |
| 2026-05-06 12:40 | -38.57013 | -72.30679 | 16760 ft | 368 kts | 207° |
| 2026-05-06 12:40 | -38.59375 | -72.31899 | 16349 ft | 365 kts | 207° |
| 2026-05-06 12:40 | -38.61724 | -72.33112 | 15918 ft | 363 kts | 207° |
| 2026-05-06 12:41 | -38.64056 | -72.34314 | 15522 ft | 360 kts | 207° |
| 2026-05-06 12:41 | -38.66338 | -72.35489 | 15115 ft | 357 kts | 207° |
| 2026-05-06 12:41 | -38.68638 | -72.36677 | 14715 ft | 355 kts | 207° |
| 2026-05-06 12:41 | -38.70925 | -72.37860 | 14312 ft | 353 kts | 207° |
| 2026-05-06 12:42 | -38.73184 | -72.39028 | 13913 ft | 351 kts | 207° |
| 2026-05-06 12:42 | -38.75440 | -72.40198 | 13509 ft | 348 kts | 207° |
| 2026-05-06 12:42 | -38.77682 | -72.41363 | 13113 ft | 346 kts | 207° |
| 2026-05-06 12:42 | -38.79913 | -72.42520 | 12699 ft | 345 kts | 207° |
| 2026-05-06 12:43 | -38.82129 | -72.43670 | 12294 ft | 344 kts | 207° |
| 2026-05-06 12:43 | -38.84338 | -72.44816 | 11901 ft | 341 kts | 207° |
| 2026-05-06 12:43 | -38.86532 | -72.45954 | 11489 ft | 339 kts | 207° |
| 2026-05-06 12:43 | -38.88717 | -72.47090 | 11079 ft | 337 kts | 206° |
| 2026-05-06 12:44 | -38.90892 | -72.48206 | 10644 ft | 337 kts | 206° |
| 2026-05-06 12:44 | -38.93047 | -72.49284 | 10434 ft | 328 kts | 205° |
| 2026-05-06 12:44 | -38.95153 | -72.50327 | 10162 ft | 316 kts | 205° |
| 2026-05-06 12:44 | -38.97161 | -72.51322 | 9624 ft | 305 kts | 205° |
| 2026-05-06 12:45 | -38.99117 | -72.52298 | 9444 ft | 300 kts | 205° |
| 2026-05-06 12:45 | -39.01058 | -72.53276 | 9317 ft | 299 kts | 205° |
| 2026-05-06 12:45 | -39.04942 | -72.55241 | 8536 ft | 299 kts | 204° |
| 2026-05-06 12:46 | -39.06867 | -72.56209 | 8141 ft | 298 kts | 204° |
| 2026-05-06 12:46 | -39.08781 | -72.57170 | 7815 ft | 293 kts | 204° |
| 2026-05-06 12:46 | -39.10668 | -72.58117 | 7140 ft | 289 kts | 204° |
| 2026-05-06 12:46 | -39.12520 | -72.59051 | 6633 ft | 283 kts | 203° |
| 2026-05-06 12:47 | -39.14296 | -72.60061 | 6187 ft | 278 kts | 216° |
| 2026-05-06 12:47 | -39.15633 | -72.61715 | 5778 ft | 272 kts | 238° |
| 2026-05-06 12:47 | -39.16346 | -72.63923 | 5316 ft | 271 kts | 261° |
| 2026-05-06 12:47 | -39.16305 | -72.66376 | 4835 ft | 269 kts | 284° |
| 2026-05-06 12:48 | -39.15770 | -72.68657 | 4394 ft | 270 kts | 287° |
| 2026-05-06 12:48 | -39.15102 | -72.70859 | 3881 ft | 262 kts | 303° |
| 2026-05-06 12:48 | -39.13795 | -72.72365 | 3540 ft | 246 kts | 335° |
| 2026-05-06 12:48 | -39.12203 | -72.72791 | 3515 ft | 228 kts | 3° |
| 2026-05-06 12:49 | -39.10726 | -72.72352 | 3523 ft | 210 kts | 17° |
| 2026-05-06 12:49 | -39.09356 | -72.71812 | 3447 ft | 203 kts | 17° |
| 2026-05-06 12:49 | -39.08021 | -72.71283 | 3233 ft | 197 kts | 17° |
| 2026-05-06 12:49 | -39.06732 | -72.70772 | 2989 ft | 192 kts | 17° |
| 2026-05-06 12:50 | -39.05463 | -72.70269 | 2745 ft | 189 kts | 18° |
| 2026-05-06 12:50 | -39.04224 | -72.69776 | 2510 ft | 182 kts | 19° |
| 2026-05-06 12:50 | -39.03047 | -72.69309 | 2264 ft | 173 kts | 19° |
| 2026-05-06 12:50 | -39.01946 | -72.68873 | 2045 ft | 160 kts | 19° |
| 2026-05-06 12:51 | -39.00909 | -72.68461 | 1831 ft | 154 kts | 19° |
| 2026-05-06 12:51 | -38.99905 | -72.68062 | 1635 ft | 151 kts | 20° |
| 2026-05-06 12:51 | -38.98905 | -72.67664 | 1433 ft | 149 kts | 19° |
| 2026-05-06 12:51 | -38.97923 | -72.67274 | 1243 ft | 147 kts | 19° |
| 2026-05-06 12:52 | -38.96954 | -72.66890 | 1044 ft | 145 kts | 18° |
| 2026-05-06 12:52 | -38.95995 | -72.66510 | 850 ft | 144 kts | 17° |
| 2026-05-06 12:52 | -38.95042 | -72.66131 | 660 ft | 143 kts | 15° |
| 2026-05-06 12:52 | -38.94090 | -72.65750 | 465 ft | 144 kts | 18° |
| 2026-05-06 12:53 | -38.93142 | -72.65383 | 313 ft | 134 kts | 17° |
| 2026-05-06 12:53 | -38.92506 | -72.65130 | 314 ft | 55 kts | 17° |
| 2026-05-06 12:53 | -38.92200 | -72.65009 | 314 ft | 42 kts | 17° |
| 2026-05-06 12:53 | -38.92005 | -72.64932 | 314 ft | 22 kts | 17° |
| 2026-05-06 12:54 | -38.91890 | -72.64886 | 314 ft | 14 kts | 17° |
| 2026-05-06 12:54 | -38.91790 | -72.64846 | 315 ft | 18 kts | 17° |
| 2026-05-06 12:54 | -38.91660 | -72.64801 | 314 ft | 15 kts | 14° |
| 2026-05-06 12:54 | -38.91563 | -72.64798 | 313 ft | 13 kts | 17° |
| 2026-05-06 12:55 | -38.91548 | -72.64767 | 313 ft | 2 kts | 144° |
| 2026-05-06 12:55 | -38.91606 | -72.64775 | 311 ft | 15 kts | 194° |
| 2026-05-06 12:55 | -38.91706 | -72.64813 | 314 ft | 14 kts | 197° |
| 2026-05-06 12:55 | -38.91780 | -72.64842 | 315 ft | 9 kts | 197° |
| 2026-05-06 12:56 | -38.91837 | -72.64865 | 315 ft | 11 kts | 197° |
| 2026-05-06 12:56 | -38.91941 | -72.64906 | 314 ft | 20 kts | 197° |
| 2026-05-06 12:56 | -38.92073 | -72.64958 | 314 ft | 18 kts | 198° |
| 2026-05-06 12:56 | -38.92180 | -72.65000 | 314 ft | 14 kts | 196° |
| 2026-05-06 12:57 | -38.92264 | -72.65033 | 313 ft | 12 kts | 195° |
| 2026-05-06 12:57 | -38.92339 | -72.65023 | 314 ft | 10 kts | 154° |
| 2026-05-06 12:57 | -38.92364 | -72.64980 | 313 ft | 9 kts | 113° |
| 2026-05-06 12:57 | -38.92381 | -72.64912 | 312 ft | 8 kts | 109° |
| 2026-05-06 12:58 | -38.92402 | -72.64838 | 313 ft | 10 kts | 110° |
| 2026-05-06 12:58 | -38.92491 | -72.64805 | 313 ft | 13 kts | 197° |
| 2026-05-06 12:58 | -38.92581 | -72.64840 | 313 ft | 9 kts | 197° |
| 2026-05-06 12:58 | -38.92624 | -72.64858 | 313 ft | 4 kts | 199° |
| 2026-05-06 12:59 | -38.92654 | -72.64870 | 313 ft | 5 kts | 198° |
| 2026-05-06 12:59 | -38.92672 | -72.64867 | 313 ft | 3 kts | 155° |
| 2026-05-06 12:59 | -38.92686 | -72.64840 | 313 ft | 5 kts | 116° |
| 2026-05-06 12:59 | -38.92699 | -72.64788 | 313 ft | 7 kts | 105° |
| 2026-05-06 13:00 | -38.92701 | -72.64777 | 313 ft | 0 kts | 106° |
| 2026-05-06 13:00 | -38.92701 | -72.64775 | 313 ft | 0 kts | 106° |